createdAt,value
2023-05-12T03:10:49.061Z,98003.63
2023-05-12T03:13:20.414Z,98028.00
2023-05-12T03:15:47.505Z,98034.28
2023-05-12T03:18:16.197Z,98022.81
2023-05-12T03:20:42.758Z,98017.25
2023-05-12T03:23:09.350Z,98028.00
2023-05-12T03:25:38.526Z,98017.53
2023-05-12T03:28:05.750Z,98025.06
2023-05-12T03:30:34.767Z,98037.69
2023-05-12T03:33:01.786Z,98032.50
2023-05-12T03:35:31.505Z,98033.66
2023-05-12T03:38:00.942Z,98031.31
2023-05-12T03:40:27.723Z,98015.25
2023-05-12T03:42:56.602Z,98041.56
2023-05-12T03:45:25.631Z,98040.63
2023-05-12T03:47:52.462Z,98030.22
2023-05-12T03:50:19.312Z,98010.94
2023-05-12T03:52:46.142Z,98013.06
2023-05-12T03:55:12.693Z,98032.91
2023-05-12T03:57:39.447Z,98015.50
2023-05-12T04:00:06.830Z,98031.63
2023-05-12T04:02:39.858Z,98026.34
2023-05-12T04:05:10.690Z,98019.00
2023-05-12T04:07:37.419Z,98023.34
2023-05-12T04:10:04.486Z,98024.94
2023-05-12T04:12:31.140Z,98030.59
2023-05-12T04:15:00.543Z,98026.75
2023-05-12T04:17:27.160Z,98045.88
2023-05-12T04:19:58.754Z,98035.56
2023-05-12T04:22:27.736Z,98030.84
2023-05-12T04:24:56.526Z,98034.09
2023-05-12T04:27:23.568Z,98042.25
2023-05-12T04:29:50.402Z,98039.97
2023-05-12T04:32:17.411Z,98048.22
2023-05-12T04:34:45.125Z,98028.75
2023-05-12T04:37:14.176Z,98046.25
2023-05-12T04:39:43.270Z,98061.75
2023-05-12T04:42:12.679Z,98041.25
2023-05-12T04:44:41.682Z,98057.72
2023-05-12T04:47:11.319Z,98058.47
2023-05-12T04:49:42.433Z,98053.63
2023-05-12T04:52:09.132Z,98065.47
2023-05-12T04:54:35.831Z,98057.78
2023-05-12T04:57:03.490Z,98048.97
2023-05-12T04:59:33.626Z,98038.78
2023-05-12T05:02:02.580Z,98056.94
2023-05-12T05:04:29.426Z,98048.19
2023-05-12T05:06:56.261Z,98040.50
2023-05-12T05:09:25.426Z,98046.13
2023-05-12T05:11:54.292Z,98050.16
2023-05-12T05:14:21.212Z,98049.66
2023-05-12T05:16:50.485Z,98058.53
2023-05-12T05:19:25.696Z,98065.25
2023-05-12T05:22:06.216Z,98056.75
2023-05-12T05:24:53.083Z,98057.31
2023-05-12T05:27:19.769Z,98065.25
2023-05-12T05:30:09.323Z,98066.66
2023-05-12T05:32:37.374Z,98059.28
2023-05-12T05:35:04.355Z,98053.81
2023-05-12T05:37:36.298Z,98056.13
2023-05-12T05:40:05.599Z,98047.22
2023-05-12T05:42:32.259Z,98077.66
2023-05-12T05:44:59.048Z,98068.44
2023-05-12T05:47:25.760Z,98063.16
2023-05-12T05:49:52.846Z,98073.50
2023-05-12T05:52:19.711Z,98065.50
2023-05-12T05:54:46.425Z,98063.63
2023-05-12T05:57:14.935Z,98065.03
2023-05-12T05:59:42.184Z,98084.00
2023-05-12T06:02:08.792Z,98062.00
2023-05-12T06:04:39.232Z,98080.81
2023-05-12T06:07:06.897Z,98076.78
2023-05-12T06:09:33.592Z,98090.16
2023-05-12T06:12:00.206Z,98084.00
2023-05-12T06:14:26.772Z,98076.03
2023-05-12T06:16:58.203Z,98084.16
2023-05-12T06:19:29.895Z,98084.09
2023-05-12T06:21:56.674Z,98104.69
2023-05-12T06:24:23.314Z,98090.13
2023-05-12T06:26:49.953Z,98099.50
2023-05-12T06:29:19.955Z,98108.78
2023-05-12T06:31:49.164Z,98100.31
2023-05-12T06:34:18.186Z,98102.91
2023-05-12T06:36:45.252Z,98107.75
2023-05-12T06:39:12.059Z,98109.78
2023-05-12T06:41:40.965Z,98115.84
2023-05-12T06:44:14.746Z,98106.69
2023-05-12T06:46:42.100Z,98094.41
2023-05-12T06:49:09.261Z,98108.59
2023-05-12T06:51:38.259Z,98102.84
2023-05-12T06:54:10.509Z,98088.44
2023-05-12T06:56:37.096Z,98110.59
2023-05-12T06:59:09.346Z,98097.41
2023-05-12T07:01:38.517Z,98095.66
2023-05-12T07:04:10.348Z,98110.84
2023-05-12T07:06:37.081Z,98107.59
2023-05-12T07:09:04.135Z,98106.19
2023-05-12T07:11:31.010Z,98115.94
2023-05-12T07:13:59.857Z,98108.47
2023-05-12T07:16:28.749Z,98110.53
2023-05-12T07:18:55.493Z,98104.56
2023-05-12T07:21:26.772Z,98112.16
2023-05-12T07:23:53.425Z,98125.84
2023-05-12T07:26:21.378Z,98107.41
2023-05-12T07:28:52.963Z,98131.44
2023-05-12T07:31:19.639Z,98092.75
2023-05-12T07:33:48.779Z,98113.59
2023-05-12T07:36:15.415Z,98111.03
2023-05-12T07:38:44.425Z,98130.44
2023-05-12T07:41:11.040Z,98116.94
2023-05-12T07:43:40.035Z,98124.13
2023-05-12T07:46:06.788Z,98123.44
2023-05-12T07:48:39.491Z,98109.94
2023-05-12T07:51:07.476Z,98130.59
2023-05-12T07:53:34.102Z,98126.63
2023-05-12T07:56:00.739Z,98127.34
2023-05-12T07:58:27.410Z,98132.50
2023-05-12T08:00:59.091Z,98139.69
2023-05-12T08:03:26.230Z,98111.44
2023-05-12T08:05:53.352Z,98137.88
2023-05-12T08:08:20.019Z,98133.72
2023-05-12T08:10:46.676Z,98131.31
2023-05-12T08:13:15.572Z,98132.84
2023-05-12T08:15:42.189Z,98132.44
2023-05-12T08:18:08.812Z,98128.44
2023-05-12T08:20:38.014Z,98128.75
2023-05-12T08:23:09.081Z,98132.25
2023-05-12T08:25:37.060Z,98135.56
2023-05-12T08:28:03.706Z,98109.34
2023-05-12T08:30:32.804Z,98140.09
2023-05-12T08:33:04.085Z,98116.91
2023-05-12T08:35:30.946Z,98126.03
2023-05-12T08:38:18.040Z,98134.66
2023-05-12T08:41:40.258Z,98151.09
2023-05-12T08:44:08.712Z,98157.81
2023-05-12T08:46:35.733Z,98138.41
2023-05-12T08:49:04.364Z,98157.78
2023-05-12T08:51:38.252Z,98155.75
2023-05-12T08:54:11.152Z,98125.19
2023-05-12T08:59:14.034Z,98143.25
2023-05-12T09:01:43.057Z,98147.41
2023-05-12T09:04:09.813Z,98162.69
2023-05-12T09:06:36.922Z,98149.72
2023-05-12T09:09:05.915Z,98157.47
2023-05-12T09:11:32.548Z,98161.88
2023-05-12T09:14:09.112Z,98168.03
2023-05-12T09:16:44.582Z,98169.50
2023-05-12T09:19:11.582Z,98174.34
2023-05-12T09:21:38.429Z,98160.44
2023-05-12T09:24:07.267Z,98142.22
2023-05-12T09:26:51.496Z,98168.81
2023-05-12T09:29:30.467Z,98171.09
2023-05-12T09:31:59.323Z,98174.69
2023-05-12T09:34:31.613Z,98184.50
2023-05-12T09:37:01.008Z,98157.56
2023-05-12T09:39:28.877Z,98174.00
2023-05-12T09:41:55.823Z,98166.31
2023-05-12T09:44:23.709Z,98175.56
2023-05-12T09:46:51.413Z,98167.75
2023-05-12T09:49:27.930Z,98173.69
2023-05-12T09:51:58.799Z,98160.09
2023-05-12T09:54:29.972Z,98172.59
2023-05-12T09:57:02.367Z,98171.78
2023-05-12T09:59:44.872Z,98043.13
2023-05-12T12:15:54.616Z,98197.72
2023-05-12T12:18:21.400Z,98196.75
2023-05-12T12:20:48.378Z,98205.03
2023-05-12T12:23:15.024Z,98199.50
2023-05-12T12:25:41.486Z,98210.84
2023-05-12T12:28:08.321Z,98211.06
2023-05-12T12:30:34.824Z,98218.91
2023-05-12T12:33:01.424Z,98223.63
2023-05-12T12:35:28.028Z,98225.06
2023-05-12T12:37:55.423Z,98218.25
2023-05-12T12:40:22.164Z,98222.84
2023-05-12T12:42:48.733Z,98214.63
2023-05-12T12:45:15.241Z,98218.00
2023-05-12T12:47:41.831Z,98225.88
2023-05-12T12:50:09.994Z,98215.75
2023-05-12T12:52:37.920Z,98219.22
2023-05-12T12:55:06.214Z,98222.56
2023-05-12T12:57:32.749Z,98217.31
2023-05-12T12:59:59.437Z,98231.38
2023-05-12T13:02:26.971Z,98219.94
2023-05-12T13:04:53.764Z,98232.56
2023-05-12T13:07:20.836Z,98235.13
2023-05-12T13:09:47.607Z,98240.19
2023-05-12T13:12:14.677Z,98233.56
2023-05-12T13:14:41.192Z,98230.47
2023-05-12T13:17:08.281Z,98230.47
2023-05-12T13:19:37.223Z,98237.06
2023-05-12T13:22:05.148Z,98231.38
2023-05-12T13:24:31.681Z,98231.94
2023-05-12T13:26:58.314Z,98238.97
2023-05-12T13:29:24.838Z,98224.75
2023-05-12T13:31:51.400Z,98237.09
2023-05-12T13:34:18.013Z,98223.44
2023-05-12T13:36:44.573Z,98229.81
2023-05-12T13:39:11.409Z,98235.09
2023-05-12T13:41:38.017Z,98234.94
2023-05-12T13:44:04.647Z,98242.72
2023-05-12T13:46:31.371Z,98233.25
2023-05-12T13:48:58.152Z,98236.72
2023-05-12T13:51:25.768Z,98232.69
2023-05-12T13:53:52.657Z,98229.91
2023-05-12T13:56:19.486Z,98233.31
2023-05-12T13:58:46.162Z,98251.38
2023-05-12T14:01:12.934Z,98246.91
2023-05-12T14:03:40.288Z,98243.34
2023-05-12T14:06:06.879Z,98238.13
2023-05-12T14:08:33.430Z,98237.88
2023-05-12T14:11:00.052Z,98247.31
2023-05-12T14:13:26.641Z,98237.34
2023-05-12T14:15:54.032Z,98238.19
2023-05-12T14:18:21.123Z,98239.69
2023-05-12T14:20:47.949Z,98226.91
2023-05-12T14:23:14.525Z,98238.09
2023-05-12T14:25:41.079Z,98242.28
2023-05-12T14:28:07.753Z,98233.56
2023-05-12T14:30:35.390Z,98239.69
2023-05-12T14:33:02.614Z,98235.81
2023-05-12T14:35:29.515Z,98239.44
2023-05-12T14:37:56.635Z,98241.16
2023-05-12T14:40:23.515Z,98247.88
2023-05-12T14:42:50.369Z,98241.75
2023-05-12T14:45:17.047Z,98251.66
2023-05-12T14:47:43.988Z,98251.75
2023-05-12T14:50:11.073Z,98244.03
2023-05-12T14:52:40.489Z,98248.75
2023-05-12T14:55:11.738Z,98252.66
2023-05-12T14:57:39.425Z,98253.44
2023-05-12T15:00:14.304Z,98252.03
2023-05-12T15:02:42.896Z,98252.09
2023-05-12T15:05:10.797Z,98242.84
2023-05-12T15:07:37.812Z,98250.28
2023-05-12T15:10:05.723Z,98242.09
2023-05-12T15:12:32.972Z,98248.81
2023-05-12T15:15:04.544Z,98247.38
2023-05-12T15:17:31.775Z,98241.38
2023-05-12T15:19:58.453Z,98247.25
2023-05-12T15:22:24.959Z,98236.47
2023-05-12T15:24:51.600Z,98239.47
2023-05-12T15:27:18.126Z,98239.09
2023-05-12T15:29:44.741Z,98244.22
2023-05-12T15:32:11.232Z,98244.63
2023-05-12T15:34:37.797Z,98244.00
2023-05-12T15:37:04.558Z,98250.50
2023-05-12T15:39:31.548Z,98255.50
2023-05-12T15:41:58.936Z,98250.28
2023-05-12T15:44:25.498Z,98259.25
2023-05-12T15:46:52.384Z,98242.63
2023-05-12T15:49:19.008Z,98240.56
2023-05-12T15:51:45.632Z,98237.50
2023-05-12T15:54:12.481Z,98223.69
2023-05-12T15:56:39.170Z,98217.72
2023-05-12T15:59:06.734Z,98228.34
2023-05-12T16:01:33.379Z,98233.09
2023-05-12T16:04:00.135Z,98231.00
2023-05-12T16:06:27.062Z,98236.19
2023-05-12T16:08:53.557Z,98229.50
2023-05-12T16:11:20.144Z,98225.06
2023-05-12T16:13:46.968Z,98226.38
2023-05-12T16:16:13.620Z,98214.03
2023-05-12T16:18:40.250Z,98224.97
2023-05-12T16:21:07.178Z,98221.13
2023-05-12T16:23:33.791Z,98210.25
2023-05-12T16:26:00.385Z,98204.94
2023-05-12T16:28:27.265Z,98205.88
2023-05-12T16:30:53.795Z,98216.09
2023-05-12T16:33:20.433Z,98218.25
2023-05-12T16:35:47.053Z,98213.25
2023-05-12T16:38:13.659Z,98210.31
2023-05-12T16:40:40.319Z,98216.34
2023-05-12T16:43:07.062Z,98212.47
2023-05-12T16:45:35.914Z,98215.88
2023-05-12T16:48:03.770Z,98209.66
2023-05-12T16:50:32.465Z,98222.50
2023-05-12T16:52:59.270Z,98224.38
2023-05-12T16:55:25.936Z,98233.88
2023-05-12T16:57:52.486Z,98222.97
2023-05-12T17:00:19.400Z,98237.34
2023-05-12T17:02:46.110Z,98228.97
2023-05-12T17:05:33.278Z,98222.56
2023-05-12T17:08:20.234Z,98223.09
2023-05-12T17:11:07.123Z,98228.94
2023-05-12T17:13:53.991Z,98233.31
2023-05-12T17:16:40.941Z,98239.28
2023-05-12T17:19:27.957Z,98231.59
2023-05-12T17:22:14.930Z,98239.16
2023-05-12T17:25:01.749Z,98255.19
2023-05-12T17:27:49.294Z,98250.25
2023-05-12T17:30:36.900Z,98247.09
2023-05-12T17:33:23.985Z,98244.72
2023-05-12T17:36:13.115Z,98255.41
2023-05-12T17:39:00.476Z,98265.56
2023-05-12T17:41:47.771Z,98254.22
2023-05-12T17:44:35.000Z,98257.38
2023-05-12T17:47:22.234Z,98249.44
2023-05-12T17:50:10.824Z,98258.75
2023-05-12T17:52:58.024Z,98261.72
2023-05-12T17:55:44.838Z,98260.59
2023-05-12T17:58:31.695Z,98263.00
2023-05-12T18:01:18.547Z,98264.28
2023-05-12T18:04:05.474Z,98257.81
2023-05-12T18:06:52.727Z,98264.63
2023-05-12T18:09:41.954Z,98269.69
2023-05-12T18:12:28.852Z,98274.44
2023-05-12T18:15:16.998Z,98276.75
2023-05-12T18:18:04.376Z,98275.38
2023-05-12T18:20:51.232Z,98278.47
2023-05-12T18:23:38.077Z,98278.50
2023-05-12T18:26:24.984Z,98272.63
2023-05-12T18:29:11.915Z,98277.38
2023-05-12T18:31:58.822Z,98294.97
2023-05-12T18:34:46.768Z,98295.25
2023-05-12T18:37:33.839Z,98284.97
2023-05-12T18:40:20.811Z,98293.06
2023-05-12T18:43:07.730Z,98304.22
2023-05-12T18:45:54.675Z,98302.22
2023-05-12T18:48:41.890Z,98313.00
2023-05-12T18:51:29.049Z,98315.72
2023-05-12T18:54:16.127Z,98313.88
2023-05-12T18:57:03.011Z,98315.50
2023-05-12T18:59:49.931Z,98312.88
2023-05-12T19:02:37.431Z,98324.06
2023-05-12T19:05:26.769Z,98328.59
2023-05-12T19:08:13.600Z,98335.81
2023-05-12T19:11:00.577Z,98336.09
2023-05-12T19:13:49.253Z,98320.06
2023-05-12T19:16:37.851Z,98331.31
2023-05-12T19:19:25.243Z,98339.63
2023-05-12T19:22:12.109Z,98345.28
2023-05-12T19:24:59.021Z,98337.44
2023-05-12T19:27:46.112Z,98338.63
2023-05-12T19:30:34.279Z,98353.53
2023-05-12T19:33:21.702Z,98351.13
2023-05-12T19:36:11.131Z,98342.28
2023-05-12T19:39:00.401Z,98360.13
2023-05-12T19:41:47.632Z,98363.53
2023-05-12T19:44:34.496Z,98355.91
2023-05-12T19:47:25.101Z,98353.16
2023-05-12T19:50:12.069Z,98355.25
